Time;durP1;ratioP1;P1;durP2;ratioP2;P2;SDS_P1;SDS_P2;PMS_P1;PMS_P2;Temp;Humidity;BMP_temperature;BMP_pressure;BME280_temperature;BME280_humidity;BME280_pressure;Samples;Min_cycle;Max_cycle;Signal;HPM_P1;HPM_P2
2023/10/23 05:01:35;;;;;;;19.27;9.10;;;;;;;;;;5482187;23;20615;-70
2023/10/23 05:04:02;;;;;;;15.50;9.50;;;;;;;;;;5012548;28;20410;-70
2023/10/23 05:06:28;;;;;;;21.20;9.10;;;;;;;;;;5012630;28;20981;-70
2023/10/23 05:08:55;;;;;;;17.33;9.07;;;;;;;;;;5012024;28;20425;-69
2023/10/23 05:11:21;;;;;;;31.87;12.70;;;;;;;;;;5002342;28;20988;-69
2023/10/23 05:13:47;;;;;;;25.50;8.73;;;;;;;;;;4992480;28;20406;-70
2023/10/23 05:16:13;;;;;;;18.20;9.37;;;;;;;;;;4975370;28;20933;-70
2023/10/23 05:18:39;;;;;;;27.17;10.97;;;;;;;;;;4992352;28;20549;-70
2023/10/23 05:21:06;;;;;;;19.83;10.90;;;;;;;;;;4992123;28;20449;-70
2023/10/23 05:23:32;;;;;;;26.97;12.50;;;;;;;;;;4992410;28;20411;-69
2023/10/23 05:25:58;;;;;;;22.33;10.80;;;;;;;;;;4992348;28;20470;-71
2023/10/23 05:28:25;;;;;;;21.70;11.40;;;;;;;;;;4992154;28;20423;-70
2023/10/23 05:30:51;;;;;;;22.80;11.43;;;;;;;;;;4991898;28;20439;-70
2023/10/23 05:33:17;;;;;;;26.00;12.13;;;;;;;;;;4984918;28;20485;-70
2023/10/23 05:35:43;;;;;;;31.60;12.50;;;;;;;;;;4988261;28;20521;-70
2023/10/23 05:38:09;;;;;;;19.53;10.97;;;;;;;;;;4973644;28;20458;-70
2023/10/23 05:40:35;;;;;;;30.73;11.90;;;;;;;;;;4991802;28;20847;-70
2023/10/23 05:43:01;;;;;;;32.50;11.27;;;;;;;;;;4992145;28;20494;-70
2023/10/23 05:45:27;;;;;;;21.93;10.70;;;;;;;;;;4991087;28;20505;-71
2023/10/23 05:47:53;;;;;;;24.20;10.93;;;;;;;;;;4986809;28;20497;-70
2023/10/23 05:50:19;;;;;;;28.10;11.87;;;;;;;;;;4990436;28;20438;-70
2023/10/23 05:52:45;;;;;;;23.33;10.07;;;;;;;;;;4991420;28;20953;-71
2023/10/23 05:55:11;;;;;;;28.63;11.10;;;;;;;;;;4991831;28;20435;-69
2023/10/23 05:57:37;;;;;;;25.07;10.77;;;;;;;;;;4991813;28;20751;-69
2023/10/23 06:00:03;;;;;;;23.43;10.67;;;;;;;;;;4989767;28;20466;-69
2023/10/23 06:02:30;;;;;;;22.40;9.70;;;;;;;;;;4990201;28;20474;-69
2023/10/23 06:04:56;;;;;;;22.27;10.37;;;;;;;;;;4990216;28;20824;-70
2023/10/23 06:07:22;;;;;;;27.27;10.03;;;;;;;;;;4984059;28;20419;-70
2023/10/23 06:09:48;;;;;;;26.60;11.83;;;;;;;;;;4991254;28;20425;-70
2023/10/23 06:12:14;;;;;;;22.80;10.00;;;;;;;;;;4990999;28;20478;-69
2023/10/23 06:14:40;;;;;;;32.87;10.87;;;;;;;;;;4990927;28;20957;-71
2023/10/23 06:17:06;;;;;;;17.67;9.20;;;;;;;;;;4991276;28;20470;-71
2023/10/23 06:19:33;;;;;;;22.73;10.33;;;;;;;;;;4988575;28;20525;-74
2023/10/23 06:21:59;;;;;;;26.93;9.40;;;;;;;;;;4991703;28;20439;-71
2023/10/23 06:24:25;;;;;;;19.73;9.20;;;;;;;;;;4991748;28;20421;-71
2023/10/23 06:26:51;;;;;;;15.57;9.17;;;;;;;;;;4991719;28;20603;-69
2023/10/23 06:29:17;;;;;;;34.97;9.57;;;;;;;;;;4991901;28;20965;-69
2023/10/23 06:31:43;;;;;;;21.10;8.53;;;;;;;;;;4992733;28;20493;-70
2023/10/23 06:34:09;;;;;;;18.43;8.93;;;;;;;;;;4994693;28;20422;-70
2023/10/23 06:36:40;;;;;;;20.23;8.27;;;;;;;;;;4996133;28;20414;-69
2023/10/23 06:39:06;;;;;;;26.57;7.43;;;;;;;;;;4977231;28;20797;-72
2023/10/23 06:41:32;;;;;;;19.07;7.90;;;;;;;;;;4995316;28;20434;-69
2023/10/23 06:43:58;;;;;;;23.70;8.07;;;;;;;;;;4998816;28;20407;-70
2023/10/23 06:46:24;;;;;;;16.90;7.53;;;;;;;;;;4999693;28;20485;-70
2023/10/23 06:48:50;;;;;;;26.57;7.70;;;;;;;;;;4999293;28;20423;-70
2023/10/23 06:51:16;;;;;;;23.50;9.13;;;;;;;;;;4999097;28;20505;-70
2023/10/23 06:53:42;;;;;;;23.27;8.07;;;;;;;;;;4998140;28;20419;-70
2023/10/23 06:56:09;;;;;;;15.50;6.70;;;;;;;;;;4995925;28;20411;-70
2023/10/23 06:58:35;;;;;;;22.80;8.37;;;;;;;;;;4995846;28;20799;-71
2023/10/23 07:01:10;;;;;;;15.57;6.43;;;;;;;;;;4996432;28;20466;-70
2023/10/23 07:03:39;;;;;;;19.57;6.07;;;;;;;;;;4997167;28;20406;-71
2023/10/23 07:06:06;;;;;;;16.83;6.30;;;;;;;;;;4994863;28;20415;-71
2023/10/23 07:08:32;;;;;;;15.60;7.20;;;;;;;;;;4994772;28;20447;-70
2023/10/23 07:10:57;;;;;;;16.63;6.80;;;;;;;;;;4977296;28;20598;-71
2023/10/23 07:13:23;;;;;;;18.43;7.90;;;;;;;;;;4994707;28;20411;-71
2023/10/23 07:15:50;;;;;;;10.80;5.77;;;;;;;;;;4994485;28;20411;-71
2023/10/23 07:18:19;;;;;;;16.30;7.83;;;;;;;;;;4994597;28;20986;-71
2023/10/23 07:20:52;;;;;;;18.67;6.20;;;;;;;;;;4994447;28;20516;-71
2023/10/23 07:23:18;;;;;;;23.57;7.13;;;;;;;;;;4977434;28;20914;-70
2023/10/23 07:25:44;;;;;;;14.93;6.30;;;;;;;;;;4994399;28;20426;-71
2023/10/23 07:28:10;;;;;;;20.70;6.73;;;;;;;;;;4994363;28;20415;-71
2023/10/23 07:30:36;;;;;;;20.80;8.53;;;;;;;;;;4994537;28;20430;-71
2023/10/23 07:33:02;;;;;;;11.60;6.70;;;;;;;;;;4994760;28;20415;-70
2023/10/23 07:35:28;;;;;;;14.50;5.57;;;;;;;;;;4994389;28;20417;-70
2023/10/23 07:37:54;;;;;;;12.63;6.20;;;;;;;;;;4994283;28;20442;-71
2023/10/23 07:40:21;;;;;;;13.23;5.57;;;;;;;;;;4976429;28;20485;-71
2023/10/23 07:42:47;;;;;;;10.73;5.57;;;;;;;;;;4994262;28;20945;-71
2023/10/23 07:45:13;;;;;;;18.97;6.13;;;;;;;;;;4992986;28;20510;-71
2023/10/23 07:47:39;;;;;;;19.00;6.53;;;;;;;;;;4993939;28;20415;-71
2023/10/23 07:50:05;;;;;;;22.13;7.73;;;;;;;;;;4993800;28;20510;-71
2023/10/23 07:52:32;;;;;;;12.60;6.90;;;;;;;;;;4976115;28;20443;-71
2023/10/23 07:54:59;;;;;;;20.53;7.63;;;;;;;;;;4994163;28;20411;-71
2023/10/23 07:57:25;;;;;;;19.00;6.07;;;;;;;;;;4993918;28;20923;-71
2023/10/23 07:59:51;;;;;;;10.33;5.37;;;;;;;;;;4993597;28;20505;-71
2023/10/23 08:02:17;;;;;;;11.23;5.23;;;;;;;;;;4993610;28;20533;-71
2023/10/23 08:04:43;;;;;;;9.93;5.57;;;;;;;;;;4993695;28;20407;-71
2023/10/23 08:07:09;;;;;;;20.67;6.40;;;;;;;;;;4993736;28;20407;-71
2023/10/23 08:09:35;;;;;;;8.97;5.57;;;;;;;;;;4993570;28;20414;-71
2023/10/23 08:12:01;;;;;;;11.00;5.40;;;;;;;;;;4993725;28;20431;-71
2023/10/23 08:14:27;;;;;;;13.63;5.90;;;;;;;;;;4993840;28;20415;-71
2023/10/23 08:16:53;;;;;;;15.43;5.80;;;;;;;;;;4993445;28;20415;-71
2023/10/23 08:19:20;;;;;;;20.77;5.70;;;;;;;;;;4993371;28;20465;-71
2023/10/23 08:21:46;;;;;;;15.30;6.07;;;;;;;;;;4993411;28;20435;-71
2023/10/23 08:24:13;;;;;;;15.13;6.50;;;;;;;;;;4993605;28;20444;-71
2023/10/23 08:26:39;;;;;;;21.10;7.53;;;;;;;;;;4975978;28;20419;-71
2023/10/23 08:29:05;;;;;;;19.43;7.03;;;;;;;;;;4993225;28;20423;-71
2023/10/23 08:31:31;;;;;;;15.70;7.17;;;;;;;;;;4993240;28;20438;-71
2023/10/23 08:33:57;;;;;;;15.00;6.00;;;;;;;;;;4993178;28;20419;-71
2023/10/23 08:36:23;;;;;;;12.50;5.90;;;;;;;;;;4993178;28;20417;-71
2023/10/23 08:38:49;;;;;;;15.27;4.87;;;;;;;;;;4993001;28;20465;-71
2023/10/23 08:41:15;;;;;;;12.80;4.90;;;;;;;;;;4992978;28;20427;-71
2023/10/23 08:43:41;;;;;;;10.13;4.70;;;;;;;;;;4993386;28;20411;-71
2023/10/23 08:46:10;;;;;;;10.60;4.90;;;;;;;;;;4993265;28;20481;-71
2023/10/23 08:48:37;;;;;;;15.50;4.77;;;;;;;;;;4992959;28;20774;-72
2023/10/23 08:51:04;;;;;;;9.50;4.30;;;;;;;;;;4992986;28;20435;-71
2023/10/23 08:53:33;;;;;;;13.33;6.27;;;;;;;;;;4993072;28;20490;-71
2023/10/23 08:56:03;;;;;;;12.17;5.27;;;;;;;;;;4992860;28;20422;-71
2023/10/23 08:58:31;;;;;;;11.83;5.90;;;;;;;;;;4992882;28;20469;-71
2023/10/23 09:00:57;;;;;;;16.00;7.20;;;;;;;;;;4992395;28;20486;-71
2023/10/23 09:03:24;;;;;;;17.30;6.20;;;;;;;;;;4992960;28;20414;-71
2023/10/23 09:05:49;;;;;;;9.20;5.50;;;;;;;;;;4992817;28;20532;-70
2023/10/23 09:08:17;;;;;;;12.57;6.20;;;;;;;;;;4992556;28;20929;-71
2023/10/23 09:11:04;;;;;;;14.50;5.40;;;;;;;;;;4992433;28;20505;-70
2023/10/23 09:13:38;;;;;;;18.57;5.37;;;;;;;;;;4992719;28;20423;-71
2023/10/23 09:16:05;;;;;;;15.20;6.00;;;;;;;;;;4992972;28;20442;-71
2023/10/23 09:18:31;;;;;;;15.30;6.67;;;;;;;;;;4992942;28;20561;-71
2023/10/23 09:20:57;;;;;;;13.07;5.80;;;;;;;;;;4992689;28;20433;-71
2023/10/23 09:23:23;;;;;;;18.47;5.90;;;;;;;;;;4992444;28;20434;-71
2023/10/23 09:25:49;;;;;;;18.07;6.43;;;;;;;;;;4992387;28;20446;-71
2023/10/23 09:28:15;;;;;;;23.40;6.53;;;;;;;;;;4992255;28;20447;-71
2023/10/23 09:30:42;;;;;;;11.63;6.33;;;;;;;;;;4992406;28;20467;-72
2023/10/23 09:33:11;;;;;;;18.73;6.20;;;;;;;;;;4992335;28;20927;-71
2023/10/23 09:35:37;;;;;;;17.07;6.03;;;;;;;;;;4992497;28;20449;-71
2023/10/23 09:38:12;;;;;;;15.40;7.10;;;;;;;;;;4996302;28;20415;-71
2023/10/23 09:40:38;;;;;;;12.73;5.67;;;;;;;;;;5000584;28;20410;-71
2023/10/23 09:43:06;;;;;;;16.87;5.73;;;;;;;;;;4987967;28;20414;-71
2023/10/23 09:45:32;;;;;;;19.90;6.87;;;;;;;;;;4994089;28;20772;-71
2023/10/23 09:48:00;;;;;;;27.00;6.80;;;;;;;;;;5000766;28;20406;-71
2023/10/23 09:50:27;;;;;;;14.93;6.40;;;;;;;;;;4999445;28;20411;-71
2023/10/23 09:52:55;;;;;;;15.73;7.00;;;;;;;;;;5000256;28;20411;-71
2023/10/23 09:55:24;;;;;;;22.67;8.60;;;;;;;;;;5002902;28;20413;-72
2023/10/23 09:57:53;;;;;;;20.63;8.33;;;;;;;;;;4985190;28;20423;-71
2023/10/23 10:00:19;;;;;;;25.37;9.30;;;;;;;;;;4998638;28;20489;-72
2023/10/23 10:02:47;;;;;;;32.63;11.23;;;;;;;;;;4997125;28;20988;-72
2023/10/23 10:05:18;;;;;;;24.17;8.33;;;;;;;;;;4992360;28;20782;-72
2023/10/23 10:07:54;;;;;;;22.50;7.30;;;;;;;;;;4993696;28;20486;-71
2023/10/23 10:10:21;;;;;;;24.20;6.77;;;;;;;;;;4995977;28;20421;-71
2023/10/23 10:12:47;;;;;;;19.27;7.33;;;;;;;;;;4995874;28;20421;-70
2023/10/23 10:15:13;;;;;;;23.30;8.23;;;;;;;;;;4978489;28;20415;-71
2023/10/23 10:17:39;;;;;;;18.97;8.37;;;;;;;;;;4995694;28;20407;-71
2023/10/23 10:20:08;;;;;;;25.63;7.90;;;;;;;;;;4995811;28;20493;-71
2023/10/23 10:22:39;;;;;;;21.30;8.23;;;;;;;;;;4995949;28;20799;-71
2023/10/23 10:25:06;;;;;;;20.17;7.77;;;;;;;;;;4996316;28;20407;-71
2023/10/23 10:27:32;;;;;;;22.67;8.77;;;;;;;;;;4995965;28;20461;-71
2023/10/23 10:30:04;;;;;;;25.70;9.13;;;;;;;;;;4995483;28;20411;-71
2023/10/23 10:32:31;;;;;;;24.03;8.43;;;;;;;;;;4995979;28;20534;-71
2023/10/23 10:34:59;;;;;;;21.63;8.77;;;;;;;;;;4995490;28;20746;-73
2023/10/23 10:37:27;;;;;;;20.43;9.20;;;;;;;;;;4995890;28;20407;-72
2023/10/23 10:40:03;;;;;;;18.03;8.43;;;;;;;;;;4995313;28;20469;-71
2023/10/23 10:42:30;;;;;;;17.47;8.03;;;;;;;;;;4995892;28;20438;-72
2023/10/23 10:45:02;;;;;;;19.53;8.07;;;;;;;;;;4995886;28;20411;-71
2023/10/23 10:47:37;;;;;;;17.43;7.30;;;;;;;;;;4995217;28;20828;-71
2023/10/23 10:50:04;;;;;;;19.40;6.80;;;;;;;;;;4995150;28;20420;-71
2023/10/23 10:52:33;;;;;;;15.90;7.70;;;;;;;;;;4977829;28;20451;-71
2023/10/23 10:55:04;;;;;;;15.37;7.00;;;;;;;;;;4995580;28;20407;-71
2023/10/23 10:57:30;;;;;;;18.17;7.53;;;;;;;;;;4995537;28;20960;-71
2023/10/23 10:59:57;;;;;;;15.47;7.80;;;;;;;;;;4995496;28;20458;-71
2023/10/23 11:02:23;;;;;;;26.90;7.43;;;;;;;;;;4978001;28;20455;-71
2023/10/23 11:04:50;;;;;;;18.77;7.23;;;;;;;;;;4995254;28;20458;-71
2023/10/23 11:07:20;;;;;;;22.23;7.63;;;;;;;;;;4995209;28;20415;-71
2023/10/23 11:09:46;;;;;;;13.93;6.77;;;;;;;;;;4994776;28;20407;-72
2023/10/23 11:12:11;;;;;;;20.50;6.63;;;;;;;;;;4994565;28;20438;-72
2023/10/23 11:14:38;;;;;;;22.87;6.63;;;;;;;;;;4995065;28;20406;-72
2023/10/23 11:17:05;;;;;;;19.13;6.20;;;;;;;;;;4994874;28;20407;-72
2023/10/23 11:19:31;;;;;;;22.40;6.90;;;;;;;;;;4994216;28;20466;-71
2023/10/23 11:22:06;;;;;;;19.23;6.20;;;;;;;;;;4994733;28;20817;-71
2023/10/23 11:24:32;;;;;;;12.93;6.77;;;;;;;;;;4994799;28;20464;-71
2023/10/23 11:26:58;;;;;;;19.00;6.53;;;;;;;;;;4994568;28;20411;-71
2023/10/23 11:29:24;;;;;;;14.90;6.93;;;;;;;;;;4995249;28;20419;-71
2023/10/23 11:31:52;;;;;;;21.47;6.70;;;;;;;;;;4995234;28;20509;-70
2023/10/23 11:34:18;;;;;;;12.90;5.40;;;;;;;;;;4994492;28;20422;-72
2023/10/23 11:36:47;;;;;;;11.83;5.70;;;;;;;;;;4994366;28;20457;-70
2023/10/23 11:39:18;;;;;;;25.37;6.37;;;;;;;;;;4993952;28;20470;-71
2023/10/23 11:41:53;;;;;;;17.73;6.87;;;;;;;;;;4994171;28;20431;-71
2023/10/23 11:44:20;;;;;;;11.90;5.87;;;;;;;;;;4994461;28;20743;-71
2023/10/23 11:46:46;;;;;;;10.20;6.20;;;;;;;;;;4994124;28;20479;-73
2023/10/23 11:49:12;;;;;;;9.50;6.10;;;;;;;;;;4994414;28;20453;-72
2023/10/23 11:51:39;;;;;;;18.00;6.03;;;;;;;;;;4994215;28;20463;-72
2023/10/23 11:54:05;;;;;;;12.80;6.33;;;;;;;;;;4994253;28;20409;-73
2023/10/23 11:56:32;;;;;;;9.07;5.20;;;;;;;;;;4994269;28;20926;-72
2023/10/23 11:58:58;;;;;;;11.30;5.83;;;;;;;;;;4994184;28;20458;-71
2023/10/23 12:01:24;;;;;;;11.00;5.87;;;;;;;;;;4994196;28;20453;-71
2023/10/23 12:03:50;;;;;;;15.97;7.30;;;;;;;;;;4993932;28;20883;-71
2023/10/23 12:06:16;;;;;;;11.23;6.40;;;;;;;;;;4994032;28;20404;-72
2023/10/23 12:08:42;;;;;;;12.87;6.00;;;;;;;;;;4994023;28;20498;-72
2023/10/23 12:11:08;;;;;;;9.57;6.33;;;;;;;;;;4993920;28;20945;-72
2023/10/23 12:13:35;;;;;;;9.57;5.40;;;;;;;;;;4993917;28;20418;-72
2023/10/23 12:16:01;;;;;;;12.90;5.70;;;;;;;;;;4994053;28;20442;-71
2023/10/23 12:18:28;;;;;;;9.73;5.63;;;;;;;;;;4993551;28;20513;-72
2023/10/23 12:20:54;;;;;;;15.30;6.20;;;;;;;;;;4993545;28;20461;-72
2023/10/23 12:23:19;;;;;;;11.40;6.27;;;;;;;;;;4993571;28;20411;-72
2023/10/23 12:25:45;;;;;;;9.73;4.40;;;;;;;;;;4993457;28;20418;-72
2023/10/23 12:28:11;;;;;;;14.60;5.77;;;;;;;;;;4993486;28;20414;-72
2023/10/23 12:30:38;;;;;;;13.90;6.10;;;;;;;;;;4992678;28;20945;-72
2023/10/23 12:33:05;;;;;;;8.60;5.30;;;;;;;;;;4993339;28;20415;-72
2023/10/23 12:35:31;;;;;;;13.53;5.40;;;;;;;;;;4993442;28;20422;-72
2023/10/23 12:37:57;;;;;;;12.13;5.30;;;;;;;;;;4993151;28;20419;-72
2023/10/23 12:40:23;;;;;;;8.90;5.43;;;;;;;;;;4992806;28;20544;-72
2023/10/23 12:42:49;;;;;;;9.87;4.57;;;;;;;;;;4993507;28;20510;-72
2023/10/23 12:45:15;;;;;;;9.53;5.23;;;;;;;;;;4975538;28;20425;-72
2023/10/23 12:47:41;;;;;;;13.73;5.60;;;;;;;;;;4992867;28;20490;-71
2023/10/23 12:50:07;;;;;;;13.13;4.90;;;;;;;;;;4992725;28;20419;-72
2023/10/23 12:52:33;;;;;;;9.67;5.00;;;;;;;;;;4992758;28;20807;-71
2023/10/23 12:54:59;;;;;;;12.00;5.87;;;;;;;;;;4993049;28;20469;-71
2023/10/23 12:57:25;;;;;;;14.17;5.60;;;;;;;;;;4992979;28;20830;-71
2023/10/23 12:59:51;;;;;;;9.13;4.73;;;;;;;;;;4992712;28;20616;-72
2023/10/23 13:02:17;;;;;;;10.50;4.90;;;;;;;;;;4992725;28;20457;-72
2023/10/23 13:04:43;;;;;;;6.90;4.23;;;;;;;;;;4992787;28;20402;-71
2023/10/23 13:07:10;;;;;;;9.43;4.60;;;;;;;;;;4992839;28;20411;-71
2023/10/23 13:09:35;;;;;;;7.43;4.80;;;;;;;;;;4992755;28;20419;-72
2023/10/23 13:12:02;;;;;;;16.20;5.50;;;;;;;;;;4992787;28;20618;-72
2023/10/23 13:14:28;;;;;;;12.93;5.37;;;;;;;;;;4992846;28;20411;-72
2023/10/23 13:16:55;;;;;;;14.90;5.70;;;;;;;;;;4992791;28;20976;-71
2023/10/23 13:19:21;;;;;;;9.20;5.37;;;;;;;;;;4992182;28;20461;-71
2023/10/23 13:21:47;;;;;;;12.87;5.13;;;;;;;;;;4992569;28;20514;-72
2023/10/23 13:24:13;;;;;;;10.50;4.90;;;;;;;;;;4992641;28;20506;-71
2023/10/23 13:26:39;;;;;;;7.80;4.77;;;;;;;;;;4992734;28;20944;-71
2023/10/23 13:29:06;;;;;;;12.87;5.20;;;;;;;;;;4974862;28;20422;-72
2023/10/23 13:31:32;;;;;;;9.50;4.40;;;;;;;;;;4992460;28;20475;-71
2023/10/23 13:33:58;;;;;;;11.00;4.50;;;;;;;;;;4992737;28;20443;-71
2023/10/23 13:36:24;;;;;;;10.43;5.10;;;;;;;;;;4992552;28;20427;-71
2023/10/23 13:38:50;;;;;;;12.47;5.27;;;;;;;;;;4992273;28;20798;-71
2023/10/23 13:41:16;;;;;;;9.63;4.43;;;;;;;;;;4991989;28;20434;-72
2023/10/23 13:43:42;;;;;;;13.10;5.10;;;;;;;;;;4996197;28;20964;-71
2023/10/23 13:46:08;;;;;;;11.90;5.30;;;;;;;;;;4996324;28;20501;-71
2023/10/23 13:48:34;;;;;;;9.70;5.30;;;;;;;;;;4996273;28;20415;-71
2023/10/23 13:51:00;;;;;;;13.13;5.60;;;;;;;;;;4996191;28;20949;-73
2023/10/23 13:53:26;;;;;;;6.97;4.83;;;;;;;;;;4996318;28;20444;-72
2023/10/23 13:55:52;;;;;;;10.03;5.57;;;;;;;;;;4996142;28;20446;-72
2023/10/23 13:58:18;;;;;;;8.67;4.90;;;;;;;;;;4996081;28;20411;-72
2023/10/23 14:00:44;;;;;;;11.40;6.80;;;;;;;;;;4995608;28;20455;-72
2023/10/23 14:03:11;;;;;;;16.43;5.53;;;;;;;;;;4996177;28;21024;-72
2023/10/23 14:05:40;;;;;;;11.50;5.53;;;;;;;;;;4996152;28;20411;-72
2023/10/23 14:08:06;;;;;;;14.90;5.93;;;;;;;;;;4996036;28;20411;-72
2023/10/23 14:10:32;;;;;;;12.53;6.20;;;;;;;;;;4995714;28;20929;-72
2023/10/23 14:12:59;;;;;;;9.17;5.87;;;;;;;;;;4995984;28;20477;-72
2023/10/23 14:15:25;;;;;;;10.03;5.50;;;;;;;;;;4996331;28;20443;-72
2023/10/23 14:17:51;;;;;;;10.37;6.30;;;;;;;;;;4996554;28;20806;-72
2023/10/23 14:20:17;;;;;;;10.07;5.67;;;;;;;;;;4995943;28;20553;-72
2023/10/23 14:22:43;;;;;;;8.37;5.73;;;;;;;;;;4996012;28;20415;-72
2023/10/23 14:25:09;;;;;;;10.37;5.80;;;;;;;;;;4995945;28;20415;-72
2023/10/23 14:27:39;;;;;;;14.50;6.80;;;;;;;;;;4996173;28;20434;-72
2023/10/23 14:30:05;;;;;;;9.37;6.40;;;;;;;;;;4995292;28;20415;-72
2023/10/23 14:32:32;;;;;;;9.07;5.07;;;;;;;;;;4995568;28;20430;-72
2023/10/23 14:34:59;;;;;;;14.40;6.20;;;;;;;;;;4995405;28;20419;-72
2023/10/23 14:37:25;;;;;;;12.67;6.57;;;;;;;;;;4995551;28;20403;-72
2023/10/23 14:39:51;;;;;;;11.30;6.63;;;;;;;;;;4995149;28;20466;-72
2023/10/23 14:42:17;;;;;;;20.80;6.77;;;;;;;;;;4995243;28;20509;-72
2023/10/23 14:44:43;;;;;;;11.57;5.80;;;;;;;;;;4995178;28;20510;-72
2023/10/23 14:47:09;;;;;;;11.70;6.07;;;;;;;;;;4995004;28;20921;-72
2023/10/23 14:49:35;;;;;;;11.53;6.13;;;;;;;;;;4995043;28;20415;-72
2023/10/23 14:52:02;;;;;;;13.07;6.30;;;;;;;;;;4995149;28;20434;-72
2023/10/23 14:54:28;;;;;;;15.10;6.37;;;;;;;;;;4994464;28;20493;-72
2023/10/23 14:56:54;;;;;;;16.40;6.70;;;;;;;;;;4995079;28;20458;-72
2023/10/23 14:59:21;;;;;;;12.93;6.40;;;;;;;;;;4994683;28;20716;-72
2023/10/23 15:01:47;;;;;;;21.10;8.30;;;;;;;;;;4994898;28;20451;-72
2023/10/23 15:04:13;;;;;;;15.80;6.53;;;;;;;;;;4994888;28;20418;-72
2023/10/23 15:06:39;;;;;;;20.20;7.13;;;;;;;;;;4994931;28;20415;-72
2023/10/23 15:09:05;;;;;;;12.23;6.53;;;;;;;;;;4994657;28;20449;-73
2023/10/23 15:11:32;;;;;;;15.33;6.80;;;;;;;;;;4994705;28;20435;-72
2023/10/23 15:13:58;;;;;;;18.07;7.40;;;;;;;;;;4994863;28;20410;-72
2023/10/23 15:16:24;;;;;;;14.97;6.00;;;;;;;;;;4994875;28;20554;-72
2023/10/23 15:18:53;;;;;;;15.23;6.77;;;;;;;;;;4994704;28;20549;-72
2023/10/23 15:21:19;;;;;;;24.10;7.13;;;;;;;;;;4994483;28;20925;-72
2023/10/23 15:23:45;;;;;;;13.53;6.30;;;;;;;;;;4994740;28;20448;-72
2023/10/23 15:26:11;;;;;;;18.17;6.63;;;;;;;;;;4994446;28;20503;-72
2023/10/23 15:28:38;;;;;;;15.97;7.80;;;;;;;;;;4994758;28;20490;-72
2023/10/23 15:31:07;;;;;;;25.67;7.07;;;;;;;;;;4994134;28;20463;-72
2023/10/23 15:33:35;;;;;;;19.10;7.00;;;;;;;;;;4994583;28;20477;-71
2023/10/23 15:36:01;;;;;;;13.37;7.03;;;;;;;;;;4994325;28;20425;-71
2023/10/23 15:38:31;;;;;;;16.83;7.77;;;;;;;;;;4994336;28;20461;-71
2023/10/23 15:41:03;;;;;;;15.03;8.67;;;;;;;;;;4993819;28;20434;-72
2023/10/23 15:43:29;;;;;;;18.83;7.63;;;;;;;;;;4994694;28;20758;-71
2023/10/23 15:45:55;;;;;;;18.90;7.50;;;;;;;;;;4994288;28;20408;-71
2023/10/23 15:48:24;;;;;;;17.43;6.73;;;;;;;;;;4994825;28;20411;-72
2023/10/23 15:50:50;;;;;;;12.80;6.80;;;;;;;;;;4994091;28;20435;-71
2023/10/23 15:53:16;;;;;;;17.40;8.90;;;;;;;;;;4994521;28;20427;-71
2023/10/23 15:55:43;;;;;;;25.20;8.73;;;;;;;;;;4994586;28;20782;-71
2023/10/23 15:58:10;;;;;;;20.10;9.00;;;;;;;;;;4976715;28;20419;-71
2023/10/23 16:00:36;;;;;;;31.23;9.47;;;;;;;;;;4993911;28;20474;-71
2023/10/23 16:03:04;;;;;;;18.10;8.03;;;;;;;;;;4994180;28;20407;-71
2023/10/23 16:05:31;;;;;;;14.13;7.83;;;;;;;;;;4994171;28;20984;-71
2023/10/23 16:07:57;;;;;;;15.87;8.40;;;;;;;;;;4995156;28;20422;-71
2023/10/23 16:10:23;;;;;;;15.23;7.67;;;;;;;;;;4994053;28;20415;-72
2023/10/23 16:12:49;;;;;;;12.90;7.20;;;;;;;;;;4993733;28;20418;-71
2023/10/23 16:15:15;;;;;;;13.60;7.70;;;;;;;;;;4993663;28;20415;-72
2023/10/23 16:17:42;;;;;;;23.73;8.10;;;;;;;;;;4993562;28;20498;-71
2023/10/23 16:20:08;;;;;;;12.80;7.30;;;;;;;;;;4993291;28;20469;-71
2023/10/23 16:22:38;;;;;;;17.13;7.40;;;;;;;;;;4993454;28;20477;-72
2023/10/23 16:25:05;;;;;;;14.83;8.03;;;;;;;;;;4993458;28;20403;-71
2023/10/23 16:27:33;;;;;;;14.50;7.37;;;;;;;;;;4993474;28;20403;-72
2023/10/23 16:29:59;;;;;;;11.73;8.03;;;;;;;;;;4993348;28;20498;-71
2023/10/23 16:32:25;;;;;;;15.90;8.20;;;;;;;;;;4993343;28;20634;-71
2023/10/23 16:34:51;;;;;;;13.60;7.27;;;;;;;;;;4993412;28;20415;-71
2023/10/23 16:37:17;;;;;;;13.80;8.33;;;;;;;;;;4993164;28;20782;-71
2023/10/23 16:39:43;;;;;;;16.67;8.50;;;;;;;;;;4992928;28;20494;-72
2023/10/23 16:42:10;;;;;;;16.20;6.20;;;;;;;;;;4993366;28;20454;-72
2023/10/23 16:44:35;;;;;;;13.23;7.10;;;;;;;;;;4993044;28;20486;-71
2023/10/23 16:47:02;;;;;;;12.83;6.97;;;;;;;;;;4993373;28;20543;-71
2023/10/23 16:49:32;;;;;;;11.00;7.17;;;;;;;;;;4992912;28;20410;-72
2023/10/23 16:51:58;;;;;;;17.37;7.17;;;;;;;;;;4992898;28;20434;-71
2023/10/23 16:54:24;;;;;;;15.63;6.50;;;;;;;;;;4992759;28;20774;-71
2023/10/23 16:56:50;;;;;;;11.53;7.40;;;;;;;;;;4992703;28;20411;-71
2023/10/23 16:59:16;;;;;;;19.63;6.70;;;;;;;;;;4992932;28;20742;-71
2023/10/23 17:01:42;;;;;;;10.90;6.17;;;;;;;;;;4992531;28;20500;-71
2023/10/23 17:04:08;;;;;;;11.57;5.77;;;;;;;;;;4992545;28;20435;-71
2023/10/23 17:06:34;;;;;;;12.30;6.50;;;;;;;;;;4992727;28;20423;-71
2023/10/23 17:09:00;;;;;;;11.83;5.67;;;;;;;;;;4992633;28;20407;-71
2023/10/23 17:11:27;;;;;;;10.20;6.20;;;;;;;;;;4992785;28;20929;-71
2023/10/23 17:13:54;;;;;;;11.63;5.60;;;;;;;;;;4992913;28;20418;-71
2023/10/23 17:16:20;;;;;;;12.70;5.83;;;;;;;;;;4999553;23;20534;-70
2023/10/23 17:18:46;;;;;;;11.23;5.40;;;;;;;;;;4956610;28;20495;-71
2023/10/23 17:21:13;;;;;;;9.20;4.97;;;;;;;;;;4973694;28;20407;-71
2023/10/23 17:23:39;;;;;;;6.77;4.60;;;;;;;;;;4956560;28;20478;-70
2023/10/23 17:26:05;;;;;;;9.23;4.47;;;;;;;;;;4974486;28;20514;-70
2023/10/23 17:28:31;;;;;;;8.63;5.37;;;;;;;;;;4974002;28;20411;-70
2023/10/23 17:31:03;;;;;;;5.27;3.50;;;;;;;;;;4973952;28;20779;-70
2023/10/23 17:33:30;;;;;;;4.87;3.47;;;;;;;;;;4973965;28;20403;-70
2023/10/23 17:35:57;;;;;;;11.13;4.53;;;;;;;;;;4973996;28;20435;-71
2023/10/23 17:38:23;;;;;;;9.40;5.30;;;;;;;;;;4973887;28;20487;-70
2023/10/23 17:40:49;;;;;;;6.80;4.77;;;;;;;;;;4973704;28;20970;-71
2023/10/23 17:43:15;;;;;;;9.07;6.00;;;;;;;;;;4965101;28;20428;-70
2023/10/23 17:45:42;;;;;;;11.03;5.33;;;;;;;;;;4973646;28;20464;-71
2023/10/23 17:48:08;;;;;;;6.30;4.73;;;;;;;;;;4973644;28;20419;-70
2023/10/23 17:50:37;;;;;;;13.40;5.00;;;;;;;;;;4973663;28;20941;-71
2023/10/23 17:53:03;;;;;;;10.70;5.30;;;;;;;;;;4973595;28;20436;-71
2023/10/23 17:55:30;;;;;;;10.57;5.60;;;;;;;;;;4973759;28;20467;-71
2023/10/23 17:57:56;;;;;;;5.73;4.37;;;;;;;;;;4973868;28;20976;-72
2023/10/23 18:00:24;;;;;;;12.33;4.80;;;;;;;;;;4974612;28;20491;-71
2023/10/23 18:02:54;;;;;;;8.00;4.80;;;;;;;;;;4974819;28;20416;-72
2023/10/23 18:05:20;;;;;;;11.17;6.03;;;;;;;;;;4973658;28;20439;-71
2023/10/23 18:07:46;;;;;;;10.93;4.53;;;;;;;;;;4982426;28;20458;-70
2023/10/23 18:10:13;;;;;;;11.73;6.30;;;;;;;;;;4981210;28;20411;-70
2023/10/23 18:12:39;;;;;;;9.77;5.93;;;;;;;;;;4973738;28;20435;-71
2023/10/23 18:15:05;;;;;;;9.67;5.63;;;;;;;;;;4962928;28;20524;-71
2023/10/23 18:17:31;;;;;;;8.37;5.83;;;;;;;;;;4974036;28;20811;-70
2023/10/23 18:19:58;;;;;;;8.20;5.30;;;;;;;;;;4962069;28;20492;-70
2023/10/23 18:22:24;;;;;;;10.90;5.63;;;;;;;;;;4954310;29;20412;-70
2023/10/23 18:24:50;;;;;;;11.50;6.70;;;;;;;;;;4965927;28;20448;-70
2023/10/23 18:27:17;;;;;;;12.20;6.30;;;;;;;;;;4973096;28;20456;-70
2023/10/23 18:29:42;;;;;;;11.20;6.60;;;;;;;;;;4975018;28;20802;-71
2023/10/23 18:32:09;;;;;;;7.90;4.90;;;;;;;;;;4976999;28;20511;-69
2023/10/23 18:34:38;;;;;;;8.13;5.63;;;;;;;;;;4959195;28;20534;-70
2023/10/23 18:37:04;;;;;;;10.67;5.90;;;;;;;;;;4967646;28;20487;-71
2023/10/23 18:39:31;;;;;;;9.17;5.57;;;;;;;;;;4974266;28;20788;-70
2023/10/23 18:41:57;;;;;;;7.10;5.27;;;;;;;;;;4976721;28;20419;-70
2023/10/23 18:44:25;;;;;;;11.93;6.27;;;;;;;;;;4982783;28;20435;-71
2023/10/23 18:46:52;;;;;;;9.00;4.90;;;;;;;;;;4978012;28;20933;-70
2023/10/23 18:49:18;;;;;;;10.97;6.10;;;;;;;;;;4977459;28;20407;-72
2023/10/23 18:51:44;;;;;;;9.63;5.40;;;;;;;;;;4976954;28;20427;-70
2023/10/23 18:54:10;;;;;;;7.93;5.20;;;;;;;;;;4977008;28;20420;-71
2023/10/23 18:56:36;;;;;;;10.00;5.30;;;;;;;;;;4977283;28;20954;-69
2023/10/23 18:59:02;;;;;;;9.00;4.67;;;;;;;;;;4976839;28;20470;-70
2023/10/23 19:01:28;;;;;;;11.17;5.60;;;;;;;;;;4977079;28;20438;-70
2023/10/23 19:03:54;;;;;;;7.80;6.00;;;;;;;;;;4976576;28;20451;-69
2023/10/23 19:06:21;;;;;;;13.10;5.20;;;;;;;;;;4976448;28;20823;-71
2023/10/23 19:08:51;;;;;;;10.33;6.40;;;;;;;;;;4977117;28;20414;-70
2023/10/23 19:11:17;;;;;;;11.40;5.70;;;;;;;;;;4979298;28;20483;-69
2023/10/23 19:13:44;;;;;;;12.47;6.40;;;;;;;;;;4979520;28;20419;-69
2023/10/23 19:16:10;;;;;;;8.87;5.77;;;;;;;;;;4979804;28;20974;-69
2023/10/23 19:18:36;;;;;;;8.80;5.37;;;;;;;;;;4980838;28;20416;-71
2023/10/23 19:21:06;;;;;;;12.63;6.30;;;;;;;;;;4969846;28;20486;-70
2023/10/23 19:23:32;;;;;;;7.80;5.97;;;;;;;;;;4968645;28;20417;-70
2023/10/23 19:25:59;;;;;;;11.80;6.63;;;;;;;;;;4973718;28;20458;-69
2023/10/23 19:28:25;;;;;;;12.20;6.27;;;;;;;;;;4977071;28;20415;-70